Time;durP1;ratioP1;P1;durP2;ratioP2;P2;SDS_P1;SDS_P2;PMS_P1;PMS_P2;Temp;Humidity;BMP_temperature;BMP_pressure;BME280_temperature;BME280_humidity;BME280_pressure;Samples;Min_cycle;Max_cycle;Signal;HPM_P1;HPM_P2
2021/11/21 00:00:52;;;;;;;41.58;20.63;;;;;;;10.33;73.48;101568.22;5050230;28;20045;-59
2021/11/21 00:03:19;;;;;;;39.58;20.17;;;;;;;10.29;73.92;101567.47;5052805;28;20049;-59
2021/11/21 00:05:46;;;;;;;37.60;20.45;;;;;;;10.30;73.86;101567.41;5041645;28;20049;-61
2021/11/21 00:08:13;;;;;;;41.60;20.70;;;;;;;10.28;73.68;101574.50;5043926;28;20049;-60
2021/11/21 00:10:41;;;;;;;43.47;20.58;;;;;;;10.23;74.17;101567.75;5047218;28;20045;-60
2021/11/21 00:13:08;;;;;;;38.75;20.67;;;;;;;10.28;74.03;101564.03;5051848;28;20539;-60
2021/11/21 00:15:35;;;;;;;42.58;20.65;;;;;;;10.35;73.88;101555.88;5038422;28;20049;-59
2021/11/21 00:18:05;;;;;;;40.78;19.98;;;;;;;10.35;73.87;101561.97;5052623;28;20485;-59
2021/11/21 00:20:32;;;;;;;40.33;19.80;;;;;;;10.40;73.66;101560.03;5042637;28;20045;-59
2021/11/21 00:22:58;;;;;;;43.40;20.20;;;;;;;10.37;73.76;101552.28;5051558;28;20037;-59
2021/11/21 00:25:25;;;;;;;41.15;19.90;;;;;;;10.33;74.04;101555.94;5052604;28;20513;-61
2021/11/21 00:27:52;;;;;;;43.35;20.38;;;;;;;10.20;74.30;101546.91;5052312;28;20048;-59
2021/11/21 00:30:18;;;;;;;46.60;20.63;;;;;;;10.22;74.23;101543.28;5046192;28;20042;-59
2021/11/21 00:32:45;;;;;;;41.10;20.70;;;;;;;10.32;74.19;101546.34;5048234;28;20049;-64
2021/11/21 00:35:12;;;;;;;37.95;20.73;;;;;;;10.34;74.12;101534.03;5052312;28;20086;-59
2021/11/21 00:37:40;;;;;;;43.00;20.55;;;;;;;10.34;74.16;101534.03;5046744;28;20045;-60
2021/11/21 00:40:08;;;;;;;42.92;19.23;;;;;;;10.36;74.04;101536.63;5049971;28;20043;-64
2021/11/21 00:42:35;;;;;;;40.95;20.55;;;;;;;10.39;74.11;101528.63;5041020;28;20049;-60
2021/11/21 00:45:05;;;;;;;42.33;20.92;;;;;;;10.37;73.85;101530.47;5051517;28;20113;-59
2021/11/21 00:47:31;;;;;;;43.70;20.63;;;;;;;10.39;74.05;101523.38;5052175;28;20052;-65
2021/11/21 00:49:58;;;;;;;43.35;21.00;;;;;;;10.39;74.16;101521.59;5052191;28;20059;-59
2021/11/21 00:52:25;;;;;;;45.97;21.77;;;;;;;10.40;74.28;101515.44;5051849;28;20053;-60
2021/11/21 00:54:54;;;;;;;43.15;20.88;;;;;;;10.32;74.62;101514.03;5052130;28;20052;-60
2021/11/21 00:57:21;;;;;;;42.03;20.02;;;;;;;10.32;74.45;101504.38;5051865;28;20053;-62
2021/11/21 00:59:48;;;;;;;42.67;20.85;;;;;;;10.36;74.43;101499.88;5050862;28;20045;-59
2021/11/21 01:02:16;;;;;;;40.10;19.60;;;;;;;10.37;74.29;101501.59;5050633;28;20045;-59
2021/11/21 01:04:43;;;;;;;41.65;20.25;;;;;;;10.40;74.05;101502.31;5051833;28;20141;-59
2021/11/21 01:07:11;;;;;;;39.95;20.33;;;;;;;10.38;74.41;101505.94;5051702;28;20049;-60
2021/11/21 01:09:39;;;;;;;43.38;20.35;;;;;;;10.29;74.72;101508.00;5052084;28;20045;-61
2021/11/21 01:12:07;;;;;;;42.92;20.85;;;;;;;10.35;74.60;101499.03;5051805;28;20599;-60
2021/11/21 01:14:34;;;;;;;43.50;20.65;;;;;;;10.33;74.38;101492.97;5051815;28;20103;-59
2021/11/21 01:17:01;;;;;;;47.30;21.95;;;;;;;10.38;74.45;101496.28;5051801;28;20056;-60
2021/11/21 01:19:28;;;;;;;43.33;22.05;;;;;;;10.36;74.25;101482.41;5051692;28;20068;-65
2021/11/21 01:21:55;;;;;;;41.42;19.42;;;;;;;10.31;74.81;101492.22;5042885;28;20045;-59
2021/11/21 01:24:22;;;;;;;42.17;20.02;;;;;;;10.28;74.83;101473.97;5051780;28;20452;-61
2021/11/21 01:26:48;;;;;;;40.67;21.08;;;;;;;10.35;74.46;101483.28;5051998;28;20349;-59
2021/11/21 01:29:15;;;;;;;37.90;19.55;;;;;;;10.27;74.74;101483.63;5051430;28;20055;-59
2021/11/21 01:31:42;;;;;;;41.03;19.60;;;;;;;10.31;74.74;101489.59;5051950;28;20045;-59
2021/11/21 01:34:09;;;;;;;38.08;19.58;;;;;;;10.30;74.67;101482.63;5051707;28;20049;-64
2021/11/21 01:36:35;;;;;;;35.70;18.67;;;;;;;10.32;74.79;101478.16;5041349;28;20044;-59
2021/11/21 01:39:02;;;;;;;40.92;20.40;;;;;;;10.25;74.87;101476.72;5051442;28;20482;-59
2021/11/21 01:41:29;;;;;;;39.85;20.67;;;;;;;10.33;74.59;101473.78;5037809;28;20046;-59
2021/11/21 01:43:56;;;;;;;37.65;18.73;;;;;;;10.35;74.62;101474.53;5051563;28;20041;-59
2021/11/21 01:46:39;;;;;;;40.33;19.73;;;;;;;10.32;74.65;101469.44;5051434;28;20045;-59
2021/11/21 01:49:07;;;;;;;38.58;19.83;;;;;;;10.29;74.91;101466.00;5051594;28;20041;-62
2021/11/21 01:51:34;;;;;;;39.00;19.48;;;;;;;10.23;74.87;101468.06;5051539;28;20067;-59
2021/11/21 01:54:02;;;;;;;38.67;19.67;;;;;;;10.20;75.17;101450.69;5042164;28;20429;-59
2021/11/21 01:56:29;;;;;;;37.60;19.38;;;;;;;10.12;75.20;101453.66;5050666;28;20136;-60
2021/11/21 01:58:57;;;;;;;36.08;19.48;;;;;;;10.22;75.09;101442.75;5051337;28;20055;-59
2021/11/21 02:01:24;;;;;;;42.00;19.83;;;;;;;10.27;74.72;101446.88;5051457;28;20049;-59
2021/11/21 02:03:51;;;;;;;42.03;19.45;;;;;;;10.24;74.61;101444.38;5051294;28;20053;-60
2021/11/21 02:06:19;;;;;;;40.80;20.55;;;;;;;10.21;75.10;101447.16;5051314;28;20052;-59
2021/11/21 02:08:46;;;;;;;39.60;19.55;;;;;;;10.22;75.04;101437.50;5050989;28;20049;-59
2021/11/21 02:11:12;;;;;;;38.55;20.10;;;;;;;10.26;74.97;101434.69;5050765;28;20407;-59
2021/11/21 02:13:39;;;;;;;38.40;18.55;;;;;;;10.28;74.81;101435.47;5055298;28;20045;-59
2021/11/21 02:16:08;;;;;;;37.15;19.15;;;;;;;10.32;74.66;101433.56;5054870;28;20098;-59
2021/11/21 02:18:35;;;;;;;38.75;20.10;;;;;;;10.31;74.65;101434.50;5054914;28;20088;-59
2021/11/21 02:21:02;;;;;;;35.13;18.73;;;;;;;10.29;74.56;101431.06;5054864;28;20040;-63
2021/11/21 02:23:29;;;;;;;37.63;19.63;;;;;;;10.33;74.12;101423.94;5054566;28;20056;-65
2021/11/21 02:25:56;;;;;;;42.85;19.88;;;;;;;10.28;74.59;101421.50;5054602;28;20102;-60
2021/11/21 02:28:23;;;;;;;44.85;21.35;;;;;;;10.28;74.74;101419.75;5051405;28;20064;-60
2021/11/21 02:30:51;;;;;;;42.67;20.58;;;;;;;10.22;74.70;101417.41;5048831;28;20052;-60
2021/11/21 02:33:20;;;;;;;38.15;20.05;;;;;;;10.24;74.56;101406.81;5054737;28;20045;-59
2021/11/21 02:35:51;;;;;;;38.33;20.08;;;;;;;10.21;74.51;101407.81;5054893;28;20461;-59
2021/11/21 02:38:20;;;;;;;43.00;19.77;;;;;;;10.10;74.99;101407.44;5054325;28;20048;-59
2021/11/21 02:40:49;;;;;;;39.67;20.17;;;;;;;10.00;74.91;101406.13;5046720;28;20060;-59
2021/11/21 02:43:18;;;;;;;41.95;20.83;;;;;;;10.08;74.80;101399.63;5048781;28;20052;-59
2021/11/21 02:45:46;;;;;;;42.03;20.52;;;;;;;10.18;74.43;101407.94;5053321;28;20061;-59
2021/11/21 02:48:19;;;;;;;39.38;19.45;;;;;;;10.24;74.42;101401.56;5054210;28;20049;-59
2021/11/21 02:50:46;;;;;;;41.13;21.95;;;;;;;10.13;74.71;101399.41;5040455;28;20041;-59
2021/11/21 02:53:15;;;;;;;47.25;21.88;;;;;;;10.15;74.78;101392.34;5054286;28;20048;-58
2021/11/21 02:55:42;;;;;;;38.45;20.13;;;;;;;10.13;74.39;101388.94;5054163;28;20045;-60
2021/11/21 02:58:08;;;;;;;40.97;20.70;;;;;;;10.15;74.28;101386.25;5054274;28;20102;-60
2021/11/21 03:00:38;;;;;;;44.85;21.13;;;;;;;10.08;74.65;101378.66;5053990;28;20037;-60
2021/11/21 03:03:05;;;;;;;44.08;21.50;;;;;;;10.03;74.95;101387.63;5053250;28;20041;-59
2021/11/21 03:05:34;;;;;;;43.17;21.70;;;;;;;10.01;74.96;101376.38;5053745;28;20076;-59
2021/11/21 03:08:02;;;;;;;42.63;23.10;;;;;;;10.05;74.55;101370.06;5053894;28;20096;-65
2021/11/21 03:10:29;;;;;;;44.28;23.30;;;;;;;10.08;74.54;101372.53;5053776;28;20045;-66
2021/11/21 03:12:58;;;;;;;44.13;21.17;;;;;;;10.05;74.46;101370.91;5054017;28;20106;-58
2021/11/21 03:15:26;;;;;;;43.53;20.10;;;;;;;10.12;74.51;101376.75;5053753;28;20056;-59
2021/11/21 03:17:54;;;;;;;41.33;21.02;;;;;;;10.13;74.44;101371.44;5053645;28;20041;-59
2021/11/21 03:20:27;;;;;;;39.67;19.85;;;;;;;10.14;74.14;101372.28;5041977;28;20492;-59
2021/11/21 03:22:56;;;;;;;44.72;21.42;;;;;;;10.15;74.12;101370.53;5052195;28;20041;-65
2021/11/21 03:25:23;;;;;;;41.90;21.10;;;;;;;10.11;73.92;101369.81;5053549;28;20492;-59
2021/11/21 03:27:50;;;;;;;37.20;19.35;;;;;;;10.09;74.43;101358.53;5053470;28;20040;-59
2021/11/21 03:30:19;;;;;;;43.67;20.58;;;;;;;10.11;74.19;101362.78;5053562;28;20048;-60
2021/11/21 03:32:47;;;;;;;41.78;20.98;;;;;;;10.18;73.92;101365.97;5053477;28;20045;-59
2021/11/21 03:35:15;;;;;;;47.78;21.70;;;;;;;10.19;74.05;101358.97;5053576;28;20049;-65
2021/11/21 03:37:42;;;;;;;46.13;21.48;;;;;;;10.17;73.95;101351.19;5052564;28;20057;-60
2021/11/21 03:40:12;;;;;;;44.88;21.30;;;;;;;10.17;74.10;101351.19;5050699;28;20049;-58
2021/11/21 03:42:40;;;;;;;38.97;20.27;;;;;;;10.16;74.21;101356.47;5042640;28;20087;-64
2021/11/21 03:45:08;;;;;;;44.63;21.38;;;;;;;10.18;74.25;101352.84;5053183;28;20498;-65
2021/11/21 03:47:35;;;;;;;40.67;20.23;;;;;;;10.06;74.56;101348.19;5053152;28;20045;-58
2021/11/21 03:50:03;;;;;;;41.30;20.80;;;;;;;10.15;74.23;101342.50;5053290;28;20425;-58
2021/11/21 03:52:30;;;;;;;40.60;20.58;;;;;;;10.16;74.26;101338.09;5047540;28;20490;-59
2021/11/21 03:54:57;;;;;;;38.78;20.02;;;;;;;10.00;74.39;101333.56;5045570;28;20053;-60
2021/11/21 03:57:23;;;;;;;42.40;20.63;;;;;;;9.95;74.83;101338.16;5053042;28;20049;-59
2021/11/21 03:59:50;;;;;;;38.47;20.90;;;;;;;10.00;74.30;101336.19;5053037;28;20049;-59
2021/11/21 04:02:17;;;;;;;41.15;20.13;;;;;;;10.02;74.36;101333.47;5051046;28;20045;-59
2021/11/21 04:04:44;;;;;;;38.35;19.10;;;;;;;9.97;74.63;101334.56;5048324;28;20083;-59
2021/11/21 04:07:10;;;;;;;44.70;20.60;;;;;;;9.87;74.79;101337.66;5048517;28;20049;-59
2021/11/21 04:09:38;;;;;;;39.42;19.70;;;;;;;9.77;74.74;101337.22;5049720;28;20048;-59
2021/11/21 04:12:06;;;;;;;39.25;20.05;;;;;;;9.86;74.68;101330.72;5049549;28;20053;-59
2021/11/21 04:14:32;;;;;;;41.88;19.38;;;;;;;9.90;74.33;101325.28;5049316;28;20106;-59
2021/11/21 04:16:59;;;;;;;43.13;21.65;;;;;;;9.94;74.14;101329.47;5049591;28;20159;-63
2021/11/21 04:19:26;;;;;;;46.53;22.67;;;;;;;10.00;74.04;101324.84;5049247;28;20041;-59
2021/11/21 04:21:52;;;;;;;40.70;20.15;;;;;;;10.02;73.90;101325.63;5049041;28;20045;-59
2021/11/21 04:24:19;;;;;;;40.90;21.30;;;;;;;10.02;73.81;101320.38;5048940;28;20045;-59
2021/11/21 04:26:48;;;;;;;46.13;23.30;;;;;;;10.04;73.68;101315.94;5040052;28;20103;-59
2021/11/21 04:29:15;;;;;;;42.38;22.00;;;;;;;10.07;73.50;101310.56;5049036;28;20049;-58
2021/11/21 04:31:42;;;;;;;44.25;22.02;;;;;;;10.12;73.35;101305.94;5049050;28;20052;-59
2021/11/21 04:34:08;;;;;;;42.03;21.40;;;;;;;10.13;73.23;101295.38;5048690;28;20045;-59
2021/11/21 04:36:35;;;;;;;42.28;22.52;;;;;;;10.10;73.20;101292.06;5049302;28;20051;-59
2021/11/21 04:39:04;;;;;;;44.20;21.05;;;;;;;10.12;73.10;101292.84;5049107;28;20064;-59
2021/11/21 04:41:31;;;;;;;41.72;21.10;;;;;;;10.13;73.05;101294.50;5034835;28;20512;-65
2021/11/21 04:43:58;;;;;;;44.13;22.75;;;;;;;10.11;72.93;101291.97;5046058;28;20041;-60
2021/11/21 04:46:25;;;;;;;44.13;21.23;;;;;;;9.98;73.39;101298.72;5049149;28;20063;-61
2021/11/21 04:48:51;;;;;;;44.47;21.90;;;;;;;10.04;73.10;101287.09;5048967;28;20045;-59
2021/11/21 04:51:18;;;;;;;43.15;22.85;;;;;;;10.04;73.02;101282.69;5048918;28;20405;-59
2021/11/21 04:53:45;;;;;;;39.97;21.10;;;;;;;10.10;72.93;101286.81;5048522;28;20045;-58
2021/11/21 04:56:12;;;;;;;44.03;22.73;;;;;;;10.15;72.83;101276.94;5048688;28;20040;-59
2021/11/21 04:58:39;;;;;;;42.67;21.55;;;;;;;10.14;72.86;101272.63;5048667;28;20513;-59
2021/11/21 05:01:06;;;;;;;43.55;21.20;;;;;;;10.17;72.66;101275.13;5041655;28;20045;-63
2021/11/21 05:03:33;;;;;;;42.38;22.55;;;;;;;10.19;72.62;101278.50;5048664;28;20053;-59
2021/11/21 05:06:00;;;;;;;42.35;21.75;;;;;;;10.21;72.69;101268.81;5048635;28;20041;-58
2021/11/21 05:08:26;;;;;;;45.42;20.98;;;;;;;10.21;72.62;101262.69;5048437;28;20063;-59
2021/11/21 05:10:53;;;;;;;39.88;21.88;;;;;;;10.22;72.78;101267.88;5049026;28;20094;-59
2021/11/21 05:13:20;;;;;;;44.38;22.20;;;;;;;10.25;72.79;101266.88;5048501;28;20052;-59
2021/11/21 05:15:46;;;;;;;40.28;21.05;;;;;;;10.25;72.85;101261.66;5044917;28;20057;-58
2021/11/21 05:18:13;;;;;;;43.28;22.70;;;;;;;10.25;72.78;101262.47;5048476;28;20037;-59
2021/11/21 05:20:40;;;;;;;40.78;21.30;;;;;;;10.26;72.70;101261.56;5034624;28;20050;-59
2021/11/21 05:23:07;;;;;;;46.17;22.52;;;;;;;10.28;72.75;101251.00;5048485;28;20098;-59
2021/11/21 05:25:33;;;;;;;42.40;22.60;;;;;;;10.27;72.63;101260.66;5048511;28;20044;-63
2021/11/21 05:28:00;;;;;;;39.53;21.30;;;;;;;10.27;72.65;101260.66;5048082;28;20378;-59
2021/11/21 05:30:27;;;;;;;45.42;22.08;;;;;;;10.29;72.59;101260.56;5048174;28;20489;-59
2021/11/21 05:32:54;;;;;;;42.47;22.35;;;;;;;10.24;72.72;101260.78;5045876;28;20095;-59
2021/11/21 05:35:21;;;;;;;42.97;21.67;;;;;;;10.22;72.68;101260.03;5048725;28;20041;-59
2021/11/21 05:37:50;;;;;;;42.78;21.13;;;;;;;10.23;72.66;101258.22;5048131;28;20473;-59
2021/11/21 05:40:18;;;;;;;40.60;21.15;;;;;;;10.25;72.51;101256.41;5044528;28;20081;-59
2021/11/21 05:42:45;;;;;;;42.10;21.98;;;;;;;10.23;72.49;101248.59;5038306;28;20095;-59
2021/11/21 05:45:12;;;;;;;45.33;22.13;;;;;;;10.24;72.48;101257.31;5048204;28;20048;-59
2021/11/21 05:47:40;;;;;;;45.25;21.48;;;;;;;10.22;72.54;101260.03;5051202;28;20126;-62
2021/11/21 05:50:12;;;;;;;48.97;22.40;;;;;;;10.15;72.64;101253.34;5051407;28;20041;-59
2021/11/21 05:52:44;;;;;;;44.17;22.10;;;;;;;10.17;72.55;101262.00;5051864;28;20076;-59
2021/11/21 05:55:11;;;;;;;48.22;24.05;;;;;;;10.19;72.37;101247.03;5051930;28;20045;-60
2021/11/21 05:57:38;;;;;;;42.35;21.65;;;;;;;10.22;72.56;101252.16;5051854;28;20045;-60
2021/11/21 06:00:09;;;;;;;45.75;21.70;;;;;;;10.17;72.79;101248.91;5052033;28;20498;-59
2021/11/21 06:02:45;;;;;;;41.55;22.40;;;;;;;10.14;72.67;101249.03;5051607;28;20045;-65
2021/11/21 06:05:15;;;;;;;44.72;22.58;;;;;;;10.13;72.66;101247.31;5051453;28;20140;-66
2021/11/21 06:07:42;;;;;;;49.35;22.77;;;;;;;10.16;72.41;101254.19;5038811;28;20122;-59
2021/11/21 06:10:10;;;;;;;45.63;21.75;;;;;;;10.09;72.60;101245.75;5051823;28;20045;-58
2021/11/21 06:12:36;;;;;;;46.35;22.58;;;;;;;10.07;72.69;101250.25;5051832;28;20397;-60
2021/11/21 06:15:05;;;;;;;44.05;21.65;;;;;;;10.07;72.76;101245.00;5051890;28;20400;-59
2021/11/21 06:17:32;;;;;;;48.20;23.98;;;;;;;9.99;72.82;101250.56;5051329;28;20405;-59
2021/11/21 06:19:59;;;;;;;44.40;22.33;;;;;;;10.03;72.83;101244.28;5051507;28;20493;-60
2021/11/21 06:22:26;;;;;;;47.05;21.60;;;;;;;10.07;72.76;101243.22;5051228;28;20045;-59
2021/11/21 06:24:53;;;;;;;50.17;23.48;;;;;;;10.02;72.94;101242.59;5041189;28;20048;-59
2021/11/21 06:27:20;;;;;;;41.38;19.92;;;;;;;9.94;73.20;101242.94;5051277;28;20075;-62
2021/11/21 06:29:47;;;;;;;40.53;19.08;;;;;;;9.90;73.35;101238.78;5051410;28;20453;-59
2021/11/21 06:32:13;;;;;;;34.78;18.08;;;;;;;9.91;73.38;101236.97;5051296;28;20095;-60
2021/11/21 06:34:40;;;;;;;34.38;17.70;;;;;;;9.87;73.42;101240.69;5050943;28;20048;-58
2021/11/21 06:37:08;;;;;;;37.30;18.27;;;;;;;9.82;73.53;101235.63;5047649;28;20056;-59
2021/11/21 06:39:38;;;;;;;33.67;17.52;;;;;;;9.81;73.54;101233.91;5038050;28;20049;-59
2021/11/21 06:42:05;;;;;;;34.58;17.38;;;;;;;9.82;73.31;101240.03;5035762;28;20394;-59
2021/11/21 06:44:32;;;;;;;33.55;15.95;;;;;;;9.72;73.77;101236.97;5041120;28;20053;-59
2021/11/21 06:46:59;;;;;;;35.03;15.95;;;;;;;9.69;73.86;101237.09;5048106;28;20053;-59
2021/11/21 06:49:25;;;;;;;33.22;15.52;;;;;;;9.63;74.04;101231.22;5050819;28;20053;-65
2021/11/21 06:51:52;;;;;;;37.67;16.98;;;;;;;9.68;73.92;101246.72;5050997;28;20041;-59
2021/11/21 06:54:19;;;;;;;34.45;17.30;;;;;;;9.68;73.96;101240.66;5051039;28;20041;-59
2021/11/21 06:56:45;;;;;;;34.50;17.63;;;;;;;9.69;73.96;101234.47;5049930;28;20500;-59
2021/11/21 06:59:12;;;;;;;30.52;16.13;;;;;;;9.70;73.94;101239.66;5050431;28;20052;-59
2021/11/21 07:01:41;;;;;;;30.67;14.75;;;;;;;9.69;73.91;101235.34;5051162;28;20059;-59
2021/11/21 07:04:09;;;;;;;28.55;14.80;;;;;;;9.70;74.01;101236.19;5050525;28;20056;-59
2021/11/21 07:06:42;;;;;;;28.23;14.60;;;;;;;9.70;73.74;101239.66;5050564;28;20041;-59
2021/11/21 07:09:11;;;;;;;29.27;15.18;;;;;;;9.78;73.60;101234.06;5050506;28;20159;-59
2021/11/21 07:11:39;;;;;;;29.30;15.77;;;;;;;9.69;73.70;101230.09;5041984;28;20056;-59
2021/11/21 07:14:07;;;;;;;25.30;14.02;;;;;;;9.69;74.00;101230.09;5046757;28;20460;-60
2021/11/21 07:16:34;;;;;;;28.38;15.48;;;;;;;9.67;73.92;101231.94;5050396;28;20107;-59
2021/11/21 07:19:01;;;;;;;26.88;13.88;;;;;;;9.66;73.60;101224.13;5050900;28;20194;-59
2021/11/21 07:21:28;;;;;;;28.73;14.38;;;;;;;9.66;73.80;101224.97;5050520;28;20048;-59
2021/11/21 07:23:55;;;;;;;31.52;16.05;;;;;;;9.69;73.74;101229.22;5050371;28;20060;-58
2021/11/21 07:26:22;;;;;;;34.03;16.33;;;;;;;9.75;73.41;101226.34;5050014;28;20045;-59
2021/11/21 07:28:48;;;;;;;29.35;15.57;;;;;;;9.82;73.13;101225.16;5049638;28;20049;-59
2021/11/21 07:31:15;;;;;;;31.42;15.52;;;;;;;9.84;73.25;101232.94;5049868;28;20045;-59
2021/11/21 07:33:42;;;;;;;28.00;15.48;;;;;;;9.84;73.25;101227.69;5050073;28;20048;-59
2021/11/21 07:36:09;;;;;;;30.92;15.23;;;;;;;9.82;73.20;101224.31;5049935;28;20453;-65
2021/11/21 07:38:36;;;;;;;32.10;15.73;;;;;;;9.76;73.42;101226.28;5050251;28;20053;-59
2021/11/21 07:41:03;;;;;;;29.92;15.65;;;;;;;9.86;73.04;101225.88;5040227;28;20107;-59
2021/11/21 07:43:30;;;;;;;27.80;14.93;;;;;;;9.84;73.11;101236.41;5043271;28;20128;-59
2021/11/21 07:46:00;;;;;;;28.20;14.35;;;;;;;9.87;73.06;101230.19;5038499;28;20060;-59
2021/11/21 07:48:28;;;;;;;25.95;14.85;;;;;;;9.88;72.97;101222.25;5049504;28;20045;-59
2021/11/21 07:50:55;;;;;;;29.98;14.60;;;;;;;9.82;72.99;101226.94;5049855;28;20045;-64
2021/11/21 07:53:23;;;;;;;29.90;15.05;;;;;;;9.85;73.21;101221.53;5049894;28;20057;-59
2021/11/21 07:55:49;;;;;;;31.73;15.48;;;;;;;9.85;72.92;101222.38;5049877;28;20083;-59
2021/11/21 07:58:16;;;;;;;29.33;15.00;;;;;;;9.87;72.96;101225.78;5049754;28;20049;-65
2021/11/21 08:00:43;;;;;;;31.50;15.10;;;;;;;9.88;72.83;101222.25;5048992;28;20041;-59
2021/11/21 08:03:10;;;;;;;33.00;16.33;;;;;;;9.86;72.90;101218.84;5049689;28;20051;-66
2021/11/21 08:05:36;;;;;;;30.73;15.13;;;;;;;9.92;72.86;101212.47;5049100;28;20061;-59
2021/11/21 08:08:04;;;;;;;31.88;15.52;;;;;;;9.93;72.76;101222.88;5049439;28;20124;-59
2021/11/21 08:10:33;;;;;;;31.92;15.20;;;;;;;9.94;72.80;101221.09;5048759;28;20774;-59
2021/11/21 08:13:04;;;;;;;33.42;16.63;;;;;;;9.87;73.03;101224.94;5049592;28;20045;-59
2021/11/21 08:15:31;;;;;;;32.90;16.27;;;;;;;9.85;73.02;101216.28;5049449;28;20041;-59
2021/11/21 08:17:57;;;;;;;36.33;17.05;;;;;;;9.90;72.91;101224.78;5042636;28;20492;-59
2021/11/21 08:20:26;;;;;;;32.58;17.35;;;;;;;9.91;72.84;101221.25;5049121;28;20053;-59
2021/11/21 08:22:54;;;;;;;40.33;18.27;;;;;;;9.90;72.94;101220.41;5048897;28;20099;-59
2021/11/21 08:25:21;;;;;;;31.30;16.45;;;;;;;9.92;72.98;101223.81;5048956;28;20124;-65
2021/11/21 08:27:48;;;;;;;33.55;16.17;;;;;;;9.91;72.77;101227.34;5049234;28;20056;-59
2021/11/21 08:30:14;;;;;;;30.45;15.63;;;;;;;9.95;72.82;101225.44;5049150;28;20044;-60
2021/11/21 08:32:41;;;;;;;34.50;19.58;;;;;;;9.97;72.56;101227.06;5049162;28;20057;-58
2021/11/21 08:35:08;;;;;;;34.25;17.23;;;;;;;9.98;72.57;101225.31;5048527;28;20174;-59
2021/11/21 08:37:35;;;;;;;32.72;17.05;;;;;;;10.00;72.51;101225.22;5048876;28;20566;-59
2021/11/21 08:40:03;;;;;;;34.90;18.48;;;;;;;10.00;72.53;101227.84;5047157;28;20045;-59
2021/11/21 08:42:30;;;;;;;35.25;18.20;;;;;;;10.02;72.39;101225.97;5037352;28;20433;-58
2021/11/21 08:44:57;;;;;;;33.80;17.48;;;;;;;10.04;72.40;101225.00;5048850;28;20501;-59
2021/11/21 08:47:23;;;;;;;34.33;16.58;;;;;;;9.94;72.66;101227.22;5048821;28;20099;-59
2021/11/21 08:49:50;;;;;;;36.38;16.70;;;;;;;10.00;72.61;101223.44;5048890;28;20048;-63
2021/11/21 08:52:17;;;;;;;34.35;17.08;;;;;;;10.03;72.29;101223.31;5041922;28;20056;-59
2021/11/21 08:54:44;;;;;;;34.95;17.15;;;;;;;10.06;72.38;101219.69;5048686;28;20489;-59
2021/11/21 08:57:11;;;;;;;36.40;17.13;;;;;;;10.07;72.45;101222.25;5048947;28;20049;-59
2021/11/21 08:59:37;;;;;;;32.92;16.55;;;;;;;10.10;72.08;101218.63;5048850;28;20049;-59
2021/11/21 09:02:04;;;;;;;31.52;15.88;;;;;;;10.16;72.02;101213.09;5048889;28;20083;-59
2021/11/21 09:04:32;;;;;;;35.45;18.27;;;;;;;10.15;72.05;101213.19;5048586;28;20069;-63
2021/11/21 09:06:59;;;;;;;37.03;18.27;;;;;;;10.19;71.94;101210.31;5037962;28;20048;-61
2021/11/21 09:09:26;;;;;;;32.90;17.08;;;;;;;10.23;71.84;101200.53;5046834;28;20080;-66
2021/11/21 09:11:53;;;;;;;33.95;17.63;;;;;;;10.29;71.91;101213.34;5030763;28;20042;-61
2021/11/21 09:14:19;;;;;;;34.03;17.70;;;;;;;10.34;71.76;101206.13;5031229;28;20052;-63
2021/11/21 09:16:46;;;;;;;31.13;16.40;;;;;;;10.39;71.67;101206.78;5036229;28;20052;-62
2021/11/21 09:19:13;;;;;;;32.33;14.88;;;;;;;10.41;71.40;101209.31;5035811;28;20505;-62
2021/11/21 09:21:42;;;;;;;32.67;16.25;;;;;;;10.35;71.46;101207.81;5034441;28;20049;-61
2021/11/21 09:24:09;;;;;;;32.25;16.10;;;;;;;10.34;71.38;101203.50;5032371;28;20046;-62
2021/11/21 09:26:36;;;;;;;34.45;16.40;;;;;;;10.34;71.34;101206.13;5035424;28;20045;-62
2021/11/21 09:29:04;;;;;;;30.98;15.63;;;;;;;10.39;71.19;101203.31;5037464;28;20063;-61
2021/11/21 09:31:31;;;;;;;31.90;16.08;;;;;;;10.40;71.41;101203.22;5035690;28;20091;-63
2021/11/21 09:33:58;;;;;;;29.73;16.08;;;;;;;10.40;71.01;101218.97;5033639;28;20448;-61
2021/11/21 09:36:25;;;;;;;31.73;16.08;;;;;;;10.25;70.87;101207.41;5034825;28;20104;-62
2021/11/21 09:38:52;;;;;;;29.55;15.38;;;;;;;10.30;71.29;101209.81;5036222;28;20524;-61
2021/11/21 09:41:18;;;;;;;29.77;15.13;;;;;;;10.28;71.14;101207.28;5036275;28;20041;-61
2021/11/21 09:43:45;;;;;;;31.90;15.77;;;;;;;10.25;71.07;101210.03;5038605;28;20042;-63
2021/11/21 09:46:14;;;;;;;28.17;16.48;;;;;;;10.26;71.03;101208.28;5035959;28;20049;-63
2021/11/21 09:48:41;;;;;;;30.92;16.60;;;;;;;10.34;70.82;101210.53;5036398;28;20051;-62
2021/11/21 09:51:07;;;;;;;31.90;15.80;;;;;;;10.71;70.02;101206.13;5031193;28;20045;-65
2021/11/21 09:53:34;;;;;;;32.85;16.13;;;;;;;10.59;70.10;101197.09;5034086;28;20054;-63
2021/11/21 09:56:01;;;;;;;33.15;17.77;;;;;;;10.53;70.31;101198.22;5033387;28;20050;-61
2021/11/21 09:58:28;;;;;;;31.73;16.08;;;;;;;10.43;70.51;101191.75;5032630;28;20049;-61
2021/11/21 10:00:55;;;;;;;35.03;17.33;;;;;;;10.45;70.31;101193.34;5033340;28;20191;-61
2021/11/21 10:03:23;;;;;;;31.83;16.42;;;;;;;10.47;70.23;101201.16;5031357;28;20045;-62
2021/11/21 10:05:55;;;;;;;30.17;16.33;;;;;;;10.51;70.13;101193.97;5032007;28;20042;-62
2021/11/21 10:08:25;;;;;;;28.30;15.77;;;;;;;10.53;70.08;101185.09;5039741;28;20049;-62
2021/11/21 10:10:53;;;;;;;30.70;16.13;;;;;;;10.54;70.30;101186.81;5050093;28;20053;-62
2021/11/21 10:13:35;;;;;;;29.70;16.58;;;;;;;10.54;70.13;101184.19;5047242;28;20128;-62
2021/11/21 10:16:17;;;;;;;35.97;18.48;;;;;;;10.51;70.09;101173.00;5046483;28;20076;-63
2021/11/21 10:18:50;;;;;;;31.33;16.25;;;;;;;10.58;70.01;101171.78;5040805;28;20049;-61
2021/11/21 10:21:23;;;;;;;32.47;16.67;;;;;;;10.62;69.83;101161.03;5040300;28;20081;-63
2021/11/21 10:24:09;;;;;;;30.67;16.67;;;;;;;10.65;69.85;101167.88;5039837;28;20464;-67
2021/11/21 10:26:35;;;;;;;29.85;16.70;;;;;;;10.59;69.79;101170.84;5042204;28;20053;-62
2021/11/21 10:29:02;;;;;;;29.65;15.93;;;;;;;10.58;69.93;101172.59;5041648;28;20048;-62
2021/11/21 10:31:34;;;;;;;34.22;18.65;;;;;;;10.60;69.77;101176.00;5041626;28;20053;-63
2021/11/21 10:34:02;;;;;;;31.50;17.30;;;;;;;10.56;69.69;101160.50;5039037;28;20048;-63
2021/11/21 10:36:32;;;;;;;32.83;17.33;;;;;;;10.56;69.68;101157.88;5040118;28;20490;-64
2021/11/21 10:39:05;;;;;;;33.53;17.75;;;;;;;10.58;69.62;101156.84;5040050;28;20041;-62
2021/11/21 10:41:36;;;;;;;33.72;17.02;;;;;;;10.54;69.67;101152.69;5046706;28;20472;-62
2021/11/21 10:44:05;;;;;;;32.30;17.27;;;;;;;10.59;69.50;101148.06;5033902;28;20095;-68
2021/11/21 10:46:43;;;;;;;33.38;17.88;;;;;;;10.63;69.61;101148.75;5032829;28;20046;-66
2021/11/21 10:49:14;;;;;;;32.13;16.85;;;;;;;10.60;69.65;101141.03;5032146;28;20051;-66
2021/11/21 10:51:42;;;;;;;36.17;18.65;;;;;;;10.59;69.80;101142.81;5031966;28;20099;-61
2021/11/21 10:54:24;;;;;;;41.15;19.17;;;;;;;10.56;69.88;101135.13;5047138;28;20037;-62
2021/11/21 10:56:53;;;;;;;40.58;19.42;;;;;;;10.56;69.67;101139.50;5043050;28;20088;-61
2021/11/21 10:59:39;;;;;;;33.97;18.70;;;;;;;10.56;69.78;101131.63;5046934;28;20052;-62
2021/11/21 11:02:16;;;;;;;37.63;20.45;;;;;;;10.52;69.91;101136.16;5042833;28;20445;-62
2021/11/21 11:05:14;;;;;;;34.65;18.58;;;;;;;10.54;69.89;101131.72;5040518;28;20532;-62
2021/11/21 11:07:51;;;;;;;43.40;20.77;;;;;;;10.55;69.86;101132.53;5045804;28;20122;-62
2021/11/21 11:10:27;;;;;;;41.83;19.58;;;;;;;10.57;69.58;101128.06;5043871;28;20056;-62
2021/11/21 11:13:05;;;;;;;44.30;21.25;;;;;;;10.56;69.88;101123.75;5046943;28;20041;-61
2021/11/21 11:15:39;;;;;;;37.90;19.70;;;;;;;10.54;69.74;101120.34;5042979;28;20552;-64